KFEW/FEW METAR and TAF weather

Enter ICAO airport designator
Station Type Date Time Source
KFEW METAR 2024/04/17 13:55 UTC NOAA

KFEW 171355Z AUTO 26006KT 10SM FEW130 SCT170 10/M02 A2997 RMK AO2 SLP103 T00951022 $


Station Type Date Time Source
KFEW Decoded METAR 2024/04/17 13:55 UTC NOAA

Station name not available
Apr 17, 2024 - 09:55 AM EDT / 2024.04.17 1355 UTC
Wind: from the W (260 degrees) at 7 MPH (6 KT):0
Visibility: 10 mile(s):0
Sky conditions: partly cloudy
Temperature: 49.1 F (9.5 C)
Dew Point: 28.0 F (-2.2 C)
Relative Humidity: 43%
Pressure (altimeter): 29.97 in. Hg (1014 hPa)
ob: KFEW 171355Z AUTO 26006KT 10SM FEW130 SCT170 10/M02 A2997 RMK AO2 SLP103 T00951022
cycle: 14

Station Type Date Time Source
KFEW TAF UTC NOAA

Error!

Example: see airport list